createdAt,value
2019-05-11T00:01:39.107Z,12.88
2019-05-11T00:04:09.804Z,12.88
2019-05-11T00:06:45.234Z,12.86
2019-05-11T00:09:16.350Z,12.77
2019-05-11T00:11:49.538Z,12.77
2019-05-11T00:14:21.258Z,12.71
2019-05-11T00:16:53.131Z,12.67
2019-05-11T00:19:25.142Z,12.66
2019-05-11T00:21:55.863Z,12.67
2019-05-11T00:24:29.634Z,12.62
2019-05-11T00:27:00.172Z,12.60
2019-05-11T00:29:31.250Z,12.57
2019-05-11T00:32:02.131Z,12.53
2019-05-11T00:34:32.821Z,12.47
2019-05-11T00:37:06.440Z,12.45
2019-05-11T00:39:36.751Z,12.43
2019-05-11T00:42:08.435Z,12.42
2019-05-11T00:44:39.785Z,12.44
2019-05-11T00:47:10.727Z,12.43
2019-05-11T00:49:41.251Z,12.44
2019-05-11T00:52:12.499Z,12.43
2019-05-11T00:54:43.424Z,12.47
2019-05-11T00:57:14.978Z,12.45
2019-05-11T00:59:46.120Z,12.45
2019-05-11T01:02:17.063Z,12.45
2019-05-11T01:04:48.000Z,12.40
2019-05-11T01:07:19.365Z,12.33
2019-05-11T01:09:51.201Z,12.32
2019-05-11T01:12:21.830Z,12.35
2019-05-11T01:14:52.680Z,12.35
2019-05-11T01:17:23.604Z,12.38
2019-05-11T01:19:55.369Z,12.42
2019-05-11T01:22:26.963Z,12.39
2019-05-11T01:24:58.259Z,12.39
2019-05-11T01:27:30.019Z,12.33
2019-05-11T01:30:00.863Z,12.29
2019-05-11T01:32:31.650Z,12.30
2019-05-11T01:35:03.259Z,12.26
2019-05-11T01:37:34.293Z,12.32
2019-05-11T01:40:10.019Z,12.26
2019-05-11T01:42:42.498Z,12.17
2019-05-11T01:45:13.598Z,12.13
2019-05-11T01:47:46.535Z,12.10
2019-05-11T01:50:17.359Z,12.03
2019-05-11T01:52:48.207Z,11.96
2019-05-11T01:55:19.133Z,11.98
2019-05-11T01:57:50.065Z,11.90
2019-05-11T02:00:21.929Z,11.89
2019-05-11T02:02:52.966Z,11.81
2019-05-11T02:05:30.708Z,11.78
2019-05-11T02:08:02.424Z,11.73
2019-05-11T02:10:34.373Z,11.68
2019-05-11T02:13:06.754Z,11.59
2019-05-11T02:15:37.387Z,11.57
2019-05-11T02:18:09.338Z,11.51
2019-05-11T02:20:40.177Z,11.46
2019-05-11T02:23:11.011Z,11.50
2019-05-11T02:25:43.147Z,11.45
2019-05-11T02:28:14.038Z,11.44
2019-05-11T02:30:44.846Z,11.47
2019-05-11T02:33:15.795Z,11.45
2019-05-11T02:35:46.824Z,11.48
2019-05-11T02:38:17.763Z,11.55
2019-05-11T02:40:49.118Z,11.58
2019-05-11T02:43:20.149Z,11.61
2019-05-11T02:45:52.009Z,11.60
2019-05-11T02:48:22.774Z,11.65
2019-05-11T02:50:55.215Z,11.71
2019-05-11T02:53:27.584Z,11.74
2019-05-11T02:55:58.419Z,11.76
2019-05-11T02:58:29.824Z,11.83
2019-05-11T03:01:01.117Z,11.91
2019-05-11T03:03:32.219Z,11.95
2019-05-11T03:06:03.304Z,12.00
2019-05-11T03:08:34.025Z,12.10
2019-05-11T03:11:05.178Z,12.14
2019-05-11T03:13:36.313Z,12.19
2019-05-11T03:16:07.242Z,12.21
2019-05-11T03:18:37.886Z,12.28
2019-05-11T03:21:08.941Z,12.28
2019-05-11T03:23:39.957Z,12.30
2019-05-11T03:26:10.789Z,12.37
2019-05-11T03:28:42.338Z,12.45
2019-05-11T03:31:12.883Z,12.55
2019-05-11T03:33:43.741Z,12.64
2019-05-11T03:36:14.967Z,12.66
2019-05-11T03:38:47.620Z,12.68
2019-05-11T03:41:18.356Z,12.81
2019-05-11T03:43:50.009Z,12.75
2019-05-11T03:46:20.651Z,12.75
2019-05-11T03:48:51.705Z,12.83
2019-05-11T03:51:22.718Z,12.87
2019-05-11T03:53:53.679Z,12.98
2019-05-11T03:56:24.382Z,13.05
2019-05-11T03:58:55.242Z,13.07
2019-05-11T04:01:25.884Z,13.15
2019-05-11T04:03:56.791Z,13.20
2019-05-11T04:06:28.036Z,13.32
2019-05-11T04:08:58.872Z,13.44
2019-05-11T04:11:29.825Z,13.56
2019-05-11T04:14:00.846Z,13.62
2019-05-11T04:16:31.807Z,13.74
2019-05-11T04:19:04.155Z,13.90
2019-05-11T04:21:34.956Z,13.99
2019-05-11T04:24:06.235Z,14.14
2019-05-11T04:26:37.388Z,14.20
2019-05-11T04:29:08.648Z,14.24
2019-05-11T04:31:39.458Z,14.35
2019-05-11T04:34:10.224Z,14.39
2019-05-11T04:36:41.143Z,14.55
2019-05-11T04:39:11.859Z,14.75
2019-05-11T04:41:42.792Z,14.87
2019-05-11T04:44:13.835Z,15.02
2019-05-11T04:46:46.102Z,15.10
2019-05-11T04:49:16.830Z,15.30
2019-05-11T04:51:47.873Z,15.51
2019-05-11T04:54:19.124Z,15.53
2019-05-11T04:56:49.954Z,15.48
2019-05-11T04:59:20.787Z,15.47
2019-05-11T05:01:53.880Z,15.65
2019-05-11T05:04:25.324Z,15.84
2019-05-11T05:06:59.827Z,16.00
2019-05-11T05:09:29.203Z,16.02
2019-05-11T05:12:00.184Z,15.98
2019-05-11T05:14:31.119Z,16.19
2019-05-11T05:17:01.656Z,16.66
2019-05-11T05:19:33.428Z,16.84
2019-05-11T05:22:04.545Z,17.05
2019-05-11T05:24:35.751Z,17.32
2019-05-11T05:27:06.423Z,17.40
2019-05-11T05:29:37.464Z,17.35
2019-05-11T05:32:08.712Z,17.60
2019-05-11T05:34:41.343Z,17.80
2019-05-11T05:37:12.522Z,17.90
2019-05-11T05:39:43.363Z,17.99
2019-05-11T05:42:14.612Z,17.65
2019-05-11T05:44:45.253Z,17.82
2019-05-11T05:47:16.085Z,17.47
2019-05-11T05:49:47.030Z,17.56
2019-05-11T05:52:19.173Z,17.67
2019-05-11T05:54:51.034Z,18.02
2019-05-11T05:57:22.599Z,17.94
2019-05-11T05:59:53.532Z,18.09
2019-05-11T06:02:24.353Z,17.86
2019-05-11T06:04:56.217Z,17.65
2019-05-11T06:07:27.051Z,17.59
2019-05-11T06:09:57.791Z,17.61
2019-05-11T06:12:28.817Z,17.80
2019-05-11T06:15:00.165Z,17.82
2019-05-11T06:17:30.700Z,17.88
2019-05-11T06:20:03.834Z,17.86
2019-05-11T06:22:34.823Z,17.67
2019-05-11T06:25:07.205Z,17.95
2019-05-11T06:27:38.537Z,18.07
2019-05-11T06:30:09.884Z,18.13
2019-05-11T06:32:41.646Z,17.82
2019-05-11T06:35:14.306Z,18.02
2019-05-11T06:37:46.586Z,18.22
2019-05-11T06:40:17.982Z,18.26
2019-05-11T06:42:48.408Z,18.07
2019-05-11T06:45:19.498Z,18.36
2019-05-11T06:47:50.546Z,18.64
2019-05-11T06:50:21.459Z,18.96
2019-05-11T06:52:52.522Z,18.72
2019-05-11T06:55:23.660Z,18.80
2019-05-11T06:57:54.553Z,18.63
2019-05-11T07:00:25.950Z,18.39
2019-05-11T07:02:57.412Z,18.79
2019-05-11T07:05:28.379Z,18.62
2019-05-11T07:08:02.243Z,18.65
2019-05-11T07:10:33.074Z,18.61
2019-05-11T07:13:04.006Z,18.85
2019-05-11T07:15:35.810Z,19.19
2019-05-11T07:18:07.540Z,19.22
2019-05-11T07:20:50.032Z,19.51
2019-05-11T07:23:10.228Z,19.59
2019-05-11T07:25:41.208Z,19.59
2019-05-11T07:28:12.020Z,19.67
2019-05-11T07:30:42.924Z,19.73
2019-05-11T07:33:18.306Z,19.87
2019-05-11T07:35:48.789Z,19.72
2019-05-11T07:38:19.628Z,19.50
2019-05-11T07:40:50.665Z,19.56
2019-05-11T07:43:21.502Z,19.66
2019-05-11T07:45:52.345Z,19.74
2019-05-11T07:48:23.171Z,19.76
2019-05-11T07:50:55.078Z,19.93
2019-05-11T07:53:27.789Z,19.98
2019-05-11T07:55:57.945Z,19.97
2019-05-11T07:58:29.205Z,19.89
2019-05-11T08:01:00.427Z,20.16
2019-05-11T08:03:32.588Z,20.18
2019-05-11T08:06:03.118Z,20.97
2019-05-11T08:08:33.814Z,21.25
2019-05-11T08:11:05.198Z,21.26
2019-05-11T08:13:35.799Z,20.92
2019-05-11T08:16:08.252Z,21.17
2019-05-11T08:18:38.946Z,21.50
2019-05-11T08:21:09.778Z,21.78
2019-05-11T08:23:42.962Z,21.86
2019-05-11T08:26:13.785Z,21.57
2019-05-11T08:28:45.028Z,21.64
2019-05-11T08:31:18.495Z,21.59
2019-05-11T08:33:48.285Z,22.04
2019-05-11T08:36:19.017Z,22.71
2019-05-11T08:38:50.276Z,22.56
2019-05-11T08:41:21.081Z,22.93
2019-05-11T08:43:51.922Z,22.68
2019-05-11T08:46:22.637Z,22.00
2019-05-11T08:48:53.451Z,22.64
2019-05-11T08:51:24.183Z,22.75
2019-05-11T08:53:55.120Z,22.51
2019-05-11T08:56:25.960Z,22.81
2019-05-11T08:58:58.864Z,22.46
2019-05-11T09:01:29.165Z,21.87
2019-05-11T09:03:59.900Z,21.87
2019-05-11T09:06:30.732Z,21.84
2019-05-11T09:09:02.367Z,22.22
2019-05-11T09:11:32.809Z,21.26
2019-05-11T09:14:03.651Z,21.78
2019-05-11T09:16:34.937Z,22.29
2019-05-11T09:19:08.799Z,21.78
2019-05-11T09:21:38.914Z,21.59
2019-05-11T09:24:10.578Z,21.34
2019-05-11T09:26:42.653Z,21.04
2019-05-11T09:29:12.927Z,20.08
2019-05-11T09:31:43.581Z,19.92
2019-05-11T09:34:18.323Z,19.62
2019-05-11T09:36:48.709Z,19.40
2019-05-11T09:39:20.493Z,19.43
2019-05-11T09:41:51.342Z,19.50
2019-05-11T09:44:21.858Z,19.24
2019-05-11T09:46:52.586Z,19.13
2019-05-11T09:49:24.140Z,19.42
2019-05-11T09:51:54.973Z,19.07
2019-05-11T09:54:25.752Z,19.12
2019-05-11T09:56:57.838Z,18.64
2019-05-11T09:59:28.729Z,18.83
2019-05-11T10:01:59.760Z,19.00
2019-05-11T10:04:31.493Z,19.07
2019-05-11T10:07:02.137Z,19.41
2019-05-11T10:09:33.115Z,19.27
2019-05-11T10:12:08.191Z,19.45
2019-05-11T10:14:38.735Z,19.78
2019-05-11T10:17:09.535Z,19.90
2019-05-11T10:19:40.888Z,20.29
2019-05-11T10:22:11.650Z,20.28
2019-05-11T10:24:42.247Z,20.17
2019-05-11T10:27:13.261Z,20.43
2019-05-11T10:29:44.060Z,20.54
2019-05-11T10:32:18.129Z,20.33
2019-05-11T10:34:48.995Z,20.13
2019-05-11T10:37:21.052Z,19.79
2019-05-11T10:39:51.412Z,19.84
2019-05-11T10:42:22.344Z,19.87
2019-05-11T10:44:54.435Z,20.03
2019-05-11T10:47:27.646Z,19.91
2019-05-11T10:49:57.985Z,19.97
2019-05-11T10:52:28.843Z,20.25
2019-05-11T10:54:59.372Z,20.67
2019-05-11T10:57:30.105Z,20.74
2019-05-11T11:00:00.862Z,20.83
2019-05-11T11:02:32.595Z,20.64
2019-05-11T11:05:08.081Z,21.04
2019-05-11T11:07:40.411Z,20.82
2019-05-11T11:10:12.383Z,20.94
2019-05-11T11:12:43.419Z,20.81
2019-05-11T11:15:14.861Z,20.70
2019-05-11T11:17:45.384Z,21.14
2019-05-11T11:20:18.841Z,21.82
2019-05-11T11:22:50.004Z,22.62
2019-05-11T11:25:22.491Z,22.68
2019-05-11T11:27:54.243Z,22.49
2019-05-11T11:30:28.560Z,22.35
2019-05-11T11:32:59.199Z,21.81
2019-05-11T11:35:31.370Z,21.07
2019-05-11T11:38:03.631Z,20.86
2019-05-11T11:40:34.467Z,20.59
2019-05-11T11:43:05.343Z,20.32
2019-05-11T11:45:38.132Z,19.99
2019-05-11T11:48:10.357Z,19.98
2019-05-11T11:50:41.083Z,19.82
2019-05-11T11:53:12.152Z,19.81
2019-05-11T11:55:43.238Z,19.80
2019-05-11T11:58:14.199Z,19.62
2019-05-11T12:00:48.051Z,19.64
2019-05-11T12:03:18.624Z,19.12
2019-05-11T12:05:51.326Z,18.94
2019-05-11T12:08:22.748Z,18.71
2019-05-11T12:10:53.289Z,18.57
2019-05-11T12:13:27.370Z,18.56
2019-05-11T12:15:58.481Z,18.34
2019-05-11T12:18:30.406Z,18.35
2019-05-11T12:21:01.169Z,18.51
2019-05-11T12:23:32.021Z,18.20
2019-05-11T12:26:03.017Z,18.20
2019-05-11T12:28:34.869Z,17.98
2019-05-11T12:31:05.441Z,17.90
2019-05-11T12:33:38.470Z,17.82
2019-05-11T12:36:09.572Z,17.86
2019-05-11T12:38:41.486Z,17.96
2019-05-11T12:41:12.347Z,17.90
2019-05-11T12:43:43.306Z,18.04
2019-05-11T12:46:14.918Z,18.09
2019-05-11T12:48:45.475Z,18.18
2019-05-11T12:51:18.650Z,17.95
2019-05-11T12:53:49.160Z,17.94
2019-05-11T12:56:20.095Z,17.99
2019-05-11T12:58:51.036Z,17.93
2019-05-11T13:01:22.185Z,17.93
2019-05-11T13:03:52.952Z,17.92
2019-05-11T13:06:24.053Z,17.93
2019-05-11T13:08:55.321Z,17.90
2019-05-11T13:11:28.423Z,17.82
2019-05-11T13:13:59.533Z,17.48
2019-05-11T13:16:30.511Z,17.61
2019-05-11T13:19:01.399Z,17.73
2019-05-11T13:21:32.333Z,17.72
2019-05-11T13:24:03.278Z,17.85
2019-05-11T13:26:34.312Z,17.77
2019-05-11T13:29:07.554Z,17.67
2019-05-11T13:31:39.354Z,17.50
2019-05-11T13:34:10.153Z,17.55
2019-05-11T13:36:41.063Z,17.46
2019-05-11T13:39:12.038Z,17.48
2019-05-11T13:41:43.211Z,17.47
2019-05-11T13:44:18.625Z,17.34
2019-05-11T13:46:49.423Z,17.36
2019-05-11T13:49:20.017Z,17.51
2019-05-11T13:51:51.053Z,17.55
2019-05-11T13:54:21.494Z,17.60
2019-05-11T13:56:52.930Z,17.72
2019-05-11T13:59:24.279Z,18.16
2019-05-11T14:01:55.323Z,18.30
2019-05-11T14:04:28.173Z,18.47
2019-05-11T14:07:00.363Z,18.59
2019-05-11T14:09:31.507Z,18.67
2019-05-11T14:12:02.348Z,18.70
2019-05-11T14:14:33.267Z,18.85
2019-05-11T14:17:04.629Z,19.02
2019-05-11T14:19:38.451Z,19.10
2019-05-11T14:22:08.789Z,19.09
2019-05-11T14:24:39.709Z,19.03
2019-05-11T14:27:10.731Z,18.95
2019-05-11T14:29:42.997Z,18.83
2019-05-11T14:32:13.729Z,18.66
2019-05-11T14:34:44.681Z,18.44
2019-05-11T14:37:17.896Z,18.17
2019-05-11T14:39:48.357Z,17.88
2019-05-11T14:42:22.126Z,18.14
2019-05-11T14:44:53.747Z,17.85
2019-05-11T14:47:24.267Z,18.11
2019-05-11T14:49:57.663Z,18.22
2019-05-11T14:52:28.062Z,18.33
2019-05-11T14:55:00.055Z,18.37
2019-05-11T14:57:33.350Z,18.41
2019-05-11T15:00:08.342Z,18.77
2019-05-11T15:02:49.538Z,19.58
2019-05-11T15:05:23.778Z,20.93
2019-05-11T15:07:54.322Z,21.56
2019-05-11T15:10:27.734Z,21.95
2019-05-11T15:12:59.228Z,21.57
2019-05-11T15:15:30.383Z,20.82
2019-05-11T15:18:01.254Z,20.97
2019-05-11T15:20:32.667Z,20.70
2019-05-11T15:23:03.808Z,20.17
2019-05-11T15:25:34.835Z,19.92
2019-05-11T15:28:05.889Z,19.22
2019-05-11T15:30:38.028Z,18.67
2019-05-11T15:33:08.891Z,18.55
2019-05-11T15:35:39.862Z,18.00
2019-05-11T15:38:10.811Z,17.88
2019-05-11T15:40:43.235Z,17.76
2019-05-11T15:43:14.378Z,17.39
2019-05-11T15:45:48.564Z,17.42
2019-05-11T15:48:19.858Z,17.22
2019-05-11T15:50:51.080Z,17.07
2019-05-11T15:53:21.988Z,16.96
2019-05-11T15:55:52.957Z,16.91
2019-05-11T15:58:23.704Z,16.90
2019-05-11T16:00:54.894Z,16.80
2019-05-11T16:03:27.932Z,16.73
2019-05-11T16:05:58.456Z,16.70
2019-05-11T16:08:29.587Z,16.69
2019-05-11T16:11:01.444Z,16.65
2019-05-11T16:13:32.834Z,16.59
2019-05-11T16:16:03.542Z,16.54
2019-05-11T16:18:34.359Z,16.40
2019-05-11T16:21:05.094Z,16.31
2019-05-11T16:23:38.974Z,16.20
2019-05-11T16:26:09.122Z,16.14
2019-05-11T16:28:39.855Z,16.10
2019-05-11T16:31:12.120Z,16.02
2019-05-11T16:33:42.790Z,15.99
2019-05-11T16:36:13.792Z,15.88
2019-05-11T16:38:44.594Z,15.89
2019-05-11T16:41:20.827Z,15.80
2019-05-11T16:43:50.596Z,15.77
2019-05-11T16:46:21.967Z,15.72
2019-05-11T16:48:52.901Z,15.68
2019-05-11T16:51:23.917Z,15.66
2019-05-11T16:53:54.854Z,15.59
2019-05-11T16:56:25.691Z,15.59
2019-05-11T16:58:58.772Z,15.55
2019-05-11T17:01:29.193Z,15.56
2019-05-11T17:04:00.450Z,15.47
2019-05-11T17:06:31.962Z,15.40
2019-05-11T17:09:05.219Z,15.31
2019-05-11T17:11:38.326Z,15.26
2019-05-11T17:14:09.210Z,15.20
2019-05-11T17:16:40.151Z,15.13
2019-05-11T17:19:10.946Z,15.10
2019-05-11T17:21:42.432Z,15.05
2019-05-11T17:24:15.458Z,15.04
2019-05-11T17:26:47.851Z,15.00
2019-05-11T17:29:20.161Z,14.95
2019-05-11T17:31:51.197Z,14.90
2019-05-11T17:34:22.019Z,14.88
2019-05-11T17:36:52.809Z,14.86
2019-05-11T17:39:23.606Z,14.83
2019-05-11T17:41:54.639Z,14.80
2019-05-11T17:44:25.481Z,14.78
2019-05-11T17:46:57.882Z,14.77
2019-05-11T17:49:29.704Z,14.78
2019-05-11T17:52:00.996Z,14.73
2019-05-11T17:54:32.298Z,14.69
2019-05-11T17:57:03.307Z,14.69
2019-05-11T17:59:34.278Z,14.66
2019-05-11T18:02:05.352Z,14.59
2019-05-11T18:04:38.811Z,14.56
2019-05-11T18:07:24.097Z,14.52
2019-05-11T18:09:41.911Z,14.48
2019-05-11T18:12:12.811Z,14.40
2019-05-11T18:14:45.124Z,14.36
2019-05-11T18:17:18.807Z,14.28
2019-05-11T18:19:50.068Z,14.23
2019-05-11T18:22:22.538Z,14.25
2019-05-11T18:24:53.267Z,14.18
2019-05-11T18:27:24.338Z,14.12
2019-05-11T18:29:57.903Z,14.13
2019-05-11T18:32:28.935Z,14.09
2019-05-11T18:34:59.498Z,14.10
2019-05-11T18:37:30.631Z,14.07
2019-05-11T18:40:03.495Z,14.06
2019-05-11T18:42:34.539Z,14.03
2019-05-11T18:45:08.234Z,14.03
2019-05-11T18:47:39.496Z,13.99
2019-05-11T18:50:10.731Z,13.94
2019-05-11T18:52:42.594Z,13.93
2019-05-11T18:55:13.623Z,13.91
2019-05-11T18:57:44.191Z,13.90
2019-05-11T19:00:15.403Z,13.87
2019-05-11T19:02:49.019Z,13.85
2019-05-11T19:05:18.719Z,13.84
2019-05-11T19:07:49.633Z,13.86
2019-05-11T19:10:20.794Z,13.84
2019-05-11T19:12:51.332Z,13.82
2019-05-11T19:15:24.422Z,13.80
2019-05-11T19:17:57.913Z,13.80
2019-05-11T19:20:29.043Z,13.73
2019-05-11T19:22:59.722Z,13.71
2019-05-11T19:25:32.749Z,13.68
2019-05-11T19:28:03.905Z,13.64
2019-05-11T19:30:38.348Z,13.62
2019-05-11T19:33:11.196Z,13.53
2019-05-11T19:35:41.748Z,13.51
2019-05-11T19:38:12.773Z,13.47
2019-05-11T19:40:43.639Z,13.42
2019-05-11T19:43:14.748Z,13.39
2019-05-11T19:45:45.685Z,13.35
2019-05-11T19:48:16.725Z,13.30
2019-05-11T19:51:02.715Z,13.27
2019-05-11T19:53:21.975Z,13.26
2019-05-11T19:55:52.815Z,13.32
2019-05-11T19:58:23.952Z,13.37
2019-05-11T20:00:57.971Z,13.37
2019-05-11T20:03:29.133Z,13.36
2019-05-11T20:06:00.970Z,13.37
2019-05-11T20:08:31.746Z,13.39
2019-05-11T20:11:03.514Z,13.39
2019-05-11T20:13:34.553Z,13.46
2019-05-11T20:16:05.398Z,13.50
2019-05-11T20:18:36.471Z,13.61
2019-05-11T20:21:16.703Z,13.61
2019-05-11T20:23:40.295Z,13.64
2019-05-11T20:26:11.194Z,13.64
2019-05-11T20:28:42.369Z,13.66
2019-05-11T20:31:14.737Z,13.64
2019-05-11T20:33:47.693Z,13.62
2019-05-11T20:36:19.071Z,13.66
2019-05-11T20:38:49.516Z,13.63
2019-05-11T20:41:20.451Z,13.60
2019-05-11T20:43:51.613Z,13.56
2019-05-11T20:46:22.921Z,13.55
2019-05-11T20:48:57.845Z,13.56
2019-05-11T20:51:34.263Z,13.64
2019-05-11T20:53:59.115Z,13.65
2019-05-11T20:56:29.858Z,13.68
2019-05-11T20:59:03.097Z,13.71
2019-05-11T21:01:34.177Z,13.73
2019-05-11T21:04:04.957Z,13.73
2019-05-11T21:06:36.006Z,13.67
2019-05-11T21:09:08.126Z,13.64
2019-05-11T21:11:38.658Z,13.64
2019-05-11T21:14:09.480Z,13.60
2019-05-11T21:16:40.520Z,13.51
2019-05-11T21:19:13.099Z,13.48
2019-05-11T21:21:50.160Z,13.43
2019-05-11T21:24:16.094Z,13.37
2019-05-11T21:26:47.914Z,13.33
2019-05-11T21:29:19.307Z,13.31
2019-05-11T21:31:50.257Z,13.26
2019-05-11T21:34:22.608Z,13.21
2019-05-11T21:36:53.341Z,13.19
2019-05-11T21:39:25.716Z,13.17
2019-05-11T21:41:58.302Z,13.20
2019-05-11T21:44:29.117Z,13.19
2019-05-11T21:47:00.057Z,13.16
2019-05-11T21:49:30.657Z,13.11
2019-05-11T21:52:04.576Z,13.13
2019-05-11T21:54:34.880Z,13.13
2019-05-11T21:57:08.174Z,13.08
2019-05-11T21:59:38.570Z,13.04
2019-05-11T22:02:11.078Z,12.98
2019-05-11T22:04:41.939Z,12.90
2019-05-11T22:07:13.184Z,12.83
2019-05-11T22:09:44.189Z,12.79
2019-05-11T22:12:15.160Z,12.73
2019-05-11T22:14:48.888Z,12.67
2019-05-11T22:17:21.140Z,12.63
2019-05-11T22:19:51.764Z,12.58
2019-05-11T22:22:25.451Z,12.56
2019-05-11T22:24:58.407Z,12.51
2019-05-11T22:27:29.297Z,12.45
2019-05-11T22:30:00.574Z,12.40
2019-05-11T22:32:31.163Z,12.38
2019-05-11T22:35:01.962Z,12.34
2019-05-11T22:37:33.037Z,12.33
2019-05-11T22:40:05.321Z,12.30
2019-05-11T22:42:35.936Z,12.29
2019-05-11T22:45:08.895Z,12.25
2019-05-11T22:47:40.263Z,12.23
2019-05-11T22:50:11.236Z,12.22
2019-05-11T22:52:41.774Z,12.18
2019-05-11T22:55:12.666Z,12.20
2019-05-11T22:57:43.501Z,12.16
2019-05-11T23:00:14.745Z,12.14
2019-05-11T23:02:45.125Z,12.13
2019-05-11T23:05:17.517Z,12.04
2019-05-11T23:07:48.276Z,11.97
2019-05-11T23:10:19.441Z,11.97
2019-05-11T23:12:50.168Z,11.92
2019-05-11T23:15:20.997Z,11.93
2019-05-11T23:17:53.453Z,11.91
2019-05-11T23:20:24.494Z,11.87
2019-05-11T23:22:58.959Z,11.80
2019-05-11T23:25:28.781Z,11.79
2019-05-11T23:27:59.664Z,11.91
2019-05-11T23:30:30.603Z,11.90
2019-05-11T23:33:02.896Z,11.85
2019-05-11T23:35:33.852Z,11.89
2019-05-11T23:38:04.874Z,11.84
2019-05-11T23:40:37.863Z,11.79
2019-05-11T23:43:08.937Z,11.73
2019-05-11T23:45:40.825Z,11.77
2019-05-11T23:48:11.421Z,11.75
2019-05-11T23:50:42.321Z,11.70
2019-05-11T23:53:13.336Z,11.68
2019-05-11T23:55:44.195Z,11.68
2019-05-11T23:58:15.413Z,11.67
